Time;durP1;ratioP1;P1;durP2;ratioP2;P2;SDS_P1;SDS_P2;PMS_P1;PMS_P2;Temp;Humidity;BMP_temperature;BMP_pressure;BME280_temperature;BME280_humidity;BME280_pressure;Samples;Min_cycle;Max_cycle;Signal;HPM_P1;HPM_P2
2021/05/03 00:01:30;;;;;;;9.40;8.50;;;3.10;80.80;;;;;;5040729;28;20481;-81
2021/05/03 00:04:10;;;;;;;9.57;8.50;;;3.00;82.60;;;;;;5041654;28;20437;-82
2021/05/03 00:06:45;;;;;;;9.43;8.60;;;3.20;82.10;;;;;;5034914;28;20464;-82
2021/05/03 00:09:20;;;;;;;9.87;8.83;;;3.20;81.50;;;;;;5021839;28;20519;-82
2021/05/03 00:11:55;;;;;;;9.20;8.30;;;3.20;80.70;;;;;;5030524;28;20454;-80
2021/05/03 00:14:30;;;;;;;11.10;8.67;;;3.10;80.40;;;;;;5032663;28;20547;-80
2021/05/03 00:17:05;;;;;;;8.60;7.80;;;3.00;81.20;;;;;;5029695;28;20453;-81
2021/05/03 00:19:40;;;;;;;9.57;8.67;;;3.10;80.80;;;;;;5026138;28;20541;-80
2021/05/03 00:22:15;;;;;;;9.17;8.33;;;3.00;81.10;;;;;;5034162;28;20475;-81
2021/05/03 00:24:50;;;;;;;12.20;9.30;;;3.00;81.80;;;;;;5023988;28;21422;-80
2021/05/03 00:27:25;;;;;;;9.37;8.43;;;3.00;81.70;;;;;;5034748;28;20452;-82
2021/05/03 00:29:59;;;;;;;10.60;9.60;;;2.90;83.20;;;;;;5023924;28;20446;-81
2021/05/03 00:32:35;;;;;;;10.23;9.17;;;2.90;83.60;;;;;;5022647;28;20506;-81
2021/05/03 00:35:10;;;;;;;10.13;9.13;;;2.90;82.70;;;;;;5031386;28;20515;-79
2021/05/03 00:37:45;;;;;;;10.97;9.37;;;2.80;85.10;;;;;;5022905;28;20962;-80
2021/05/03 00:40:20;;;;;;;10.30;9.30;;;2.80;84.80;;;;;;5028339;28;20530;-81
2021/05/03 00:42:55;;;;;;;10.23;9.23;;;2.80;84.90;;;;;;5026815;28;20519;-81
2021/05/03 00:45:30;;;;;;;9.20;8.30;;;2.70;85.50;;;;;;5035514;28;20482;-81
2021/05/03 00:48:07;;;;;;;10.30;9.30;;;2.70;85.40;;;;;;5026417;28;20461;-80
2021/05/03 00:50:42;;;;;;;9.63;8.63;;;2.70;87.50;;;;;;5010674;28;20454;-80
2021/05/03 00:53:22;;;;;;;10.37;9.17;;;2.60;87.10;;;;;;5029553;28;20470;-80
2021/05/03 00:55:54;;;;;;;12.03;9.30;;;2.60;87.00;;;;;;5027794;28;20526;-80
2021/05/03 00:58:30;;;;;;;12.40;9.97;;;2.70;86.60;;;;;;5025791;28;20471;-81
2021/05/03 01:01:05;;;;;;;11.47;9.30;;;2.70;86.80;;;;;;5031580;28;20459;-83
2021/05/03 01:03:46;;;;;;;9.80;8.80;;;2.70;85.80;;;;;;5028495;28;20450;-81
2021/05/03 01:06:26;;;;;;;9.73;8.83;;;2.70;85.50;;;;;;5037031;28;20482;-81
2021/05/03 01:09:01;;;;;;;10.43;9.53;;;2.80;85.30;;;;;;5016439;28;20459;-84
2021/05/03 01:11:37;;;;;;;10.20;9.17;;;2.90;84.60;;;;;;5035233;28;20435;-81
2021/05/03 01:14:12;;;;;;;9.90;8.90;;;3.00;84.00;;;;;;5038473;28;20478;-81
2021/05/03 01:16:46;;;;;;;11.13;8.50;;;3.10;83.00;;;;;;5027356;28;20455;-81
2021/05/03 01:19:22;;;;;;;11.70;8.60;;;3.30;81.90;;;;;;5039462;28;20461;-80
2021/05/03 01:21:58;;;;;;;9.03;8.13;;;3.40;80.90;;;;;;5037455;28;20604;-80
2021/05/03 01:24:33;;;;;;;9.23;8.33;;;3.40;80.30;;;;;;5032554;28;20950;-81
2021/05/03 01:27:07;;;;;;;9.30;8.43;;;3.50;80.70;;;;;;5036745;28;20467;-82
2021/05/03 01:29:50;;;;;;;9.77;8.87;;;3.50;79.80;;;;;;5023109;28;20492;-81
2021/05/03 01:32:30;;;;;;;10.60;7.87;;;3.50;79.60;;;;;;5032774;28;20481;-82
2021/05/03 01:35:05;;;;;;;9.37;8.47;;;3.40;79.20;;;;;;5029276;28;20519;-80
2021/05/03 01:37:41;;;;;;;9.40;8.53;;;3.30;80.00;;;;;;5036797;28;20618;-80
2021/05/03 01:40:16;;;;;;;9.60;8.77;;;3.30;80.60;;;;;;5046484;28;20474;-80
2021/05/03 01:42:51;;;;;;;9.40;8.60;;;3.20;80.90;;;;;;5035867;28;20461;-80
2021/05/03 01:45:29;;;;;;;8.23;7.43;;;3.10;81.00;;;;;;5029159;28;20474;-81
2021/05/03 01:48:05;;;;;;;9.07;8.07;;;3.00;81.20;;;;;;5029833;28;20555;-81
2021/05/03 01:50:40;;;;;;;10.27;8.90;;;2.80;82.50;;;;;;5033661;28;20484;-82
2021/05/03 01:53:17;;;;;;;9.63;8.13;;;2.70;83.30;;;;;;5033513;28;20585;-84
2021/05/03 01:56:03;;;;;;;9.43;8.43;;;2.60;83.30;;;;;;5021465;28;20466;-79
2021/05/03 01:58:38;;;;;;;9.83;8.87;;;2.70;83.70;;;;;;5030016;28;20443;-80
2021/05/03 02:01:12;;;;;;;10.97;9.10;;;2.70;83.70;;;;;;5033449;28;20463;-80
2021/05/03 02:03:47;;;;;;;8.67;7.90;;;2.60;84.10;;;;;;5034561;28;20453;-80
2021/05/03 02:06:27;;;;;;;9.40;8.50;;;2.70;84.40;;;;;;5042571;28;20472;-81
2021/05/03 02:09:07;;;;;;;10.20;8.93;;;2.70;84.60;;;;;;5028466;28;20444;-82
2021/05/03 02:11:41;;;;;;;12.03;8.63;;;2.70;84.70;;;;;;5031604;28;21017;-81
2021/05/03 02:14:17;;;;;;;10.50;9.40;;;2.90;83.70;;;;;;5020893;28;20455;-81
2021/05/03 02:16:51;;;;;;;11.10;9.60;;;2.90;84.80;;;;;;5035767;28;20991;-83
2021/05/03 02:19:26;;;;;;;9.23;8.20;;;2.80;86.80;;;;;;5031665;28;20449;-81
2021/05/03 02:22:01;;;;;;;9.70;8.73;;;2.80;90.00;;;;;;5028715;28;21085;-81
2021/05/03 02:24:36;;;;;;;10.23;9.23;;;2.80;90.50;;;;;;5034781;28;20477;-81
2021/05/03 02:27:11;;;;;;;11.17;9.97;;;2.90;91.70;;;;;;5032045;28;20562;-81
2021/05/03 02:29:47;;;;;;;13.27;9.70;;;2.80;91.60;;;;;;5014979;28;20473;-81
2021/05/03 02:32:29;;;;;;;10.23;9.23;;;2.80;92.10;;;;;;5031839;28;20454;-81
2021/05/03 02:35:06;;;;;;;10.17;9.07;;;2.70;92.50;;;;;;5036219;28;20476;-83
2021/05/03 02:37:41;;;;;;;9.70;8.80;;;2.60;93.40;;;;;;5036263;28;20460;-81
2021/05/03 02:40:18;;;;;;;10.33;9.40;;;2.60;93.50;;;;;;5025475;28;20480;-80
2021/05/03 02:42:54;;;;;;;10.67;8.87;;;2.60;93.30;;;;;;5033275;28;20524;-80
2021/05/03 02:45:30;;;;;;;10.50;9.50;;;2.70;92.80;;;;;;5024967;28;20486;-83
2021/05/03 02:48:19;;;;;;;10.97;9.27;;;2.70;92.10;;;;;;5032935;28;20455;-81
2021/05/03 02:50:54;;;;;;;11.60;10.37;;;2.60;92.20;;;;;;5033671;28;20456;-82
2021/05/03 02:53:29;;;;;;;10.37;8.80;;;2.60;92.00;;;;;;5039570;28;20465;-81
2021/05/03 02:56:04;;;;;;;11.00;8.27;;;2.70;89.20;;;;;;5041356;28;20454;-80
2021/05/03 02:58:39;;;;;;;10.10;9.20;;;2.80;86.60;;;;;;5026424;28;20531;-80
2021/05/03 03:01:14;;;;;;;10.57;9.20;;;2.90;84.40;;;;;;5020242;28;20471;-82
2021/05/03 03:03:54;;;;;;;9.30;8.50;;;2.90;86.00;;;;;;5022196;28;21018;-81
2021/05/03 03:06:28;;;;;;;8.80;8.00;;;2.90;84.30;;;;;;5038713;28;20817;-83
2021/05/03 03:09:03;;;;;;;11.87;8.60;;;2.80;84.00;;;;;;5026798;28;20463;-81
2021/05/03 03:11:41;;;;;;;9.10;8.27;;;2.80;84.40;;;;;;5027410;28;20451;-81
2021/05/03 03:14:16;;;;;;;9.60;8.60;;;2.70;84.50;;;;;;5027171;28;20539;-82
2021/05/03 03:16:51;;;;;;;10.70;9.60;;;2.70;86.10;;;;;;5032409;28;20452;-81
2021/05/03 03:19:25;;;;;;;8.70;7.87;;;2.60;86.20;;;;;;5028713;28;20503;-81
2021/05/03 03:22:00;;;;;;;10.00;8.73;;;2.60;86.50;;;;;;5026829;28;20487;-81
2021/05/03 03:24:35;;;;;;;9.73;8.73;;;2.60;87.30;;;;;;5032095;28;20454;-80
2021/05/03 03:27:10;;;;;;;9.70;8.80;;;2.50;90.00;;;;;;5031676;28;20484;-81
2021/05/03 03:29:45;;;;;;;10.83;8.93;;;2.50;90.10;;;;;;5035766;28;20470;-81
2021/05/03 03:32:20;;;;;;;10.97;9.70;;;2.50;90.70;;;;;;5039077;28;20459;-81
2021/05/03 03:34:54;;;;;;;11.97;10.20;;;2.50;91.00;;;;;;5030051;28;20471;-81
2021/05/03 03:37:29;;;;;;;11.17;9.33;;;2.40;92.90;;;;;;5033718;28;20501;-81
2021/05/03 03:40:04;;;;;;;10.73;9.73;;;2.40;94.30;;;;;;5027840;28;20477;-82
2021/05/03 03:42:37;;;;;;;11.10;9.90;;;2.40;94.40;;;;;;5033318;28;20477;-81
2021/05/03 03:45:13;;;;;;;10.80;9.77;;;2.40;94.60;;;;;;5038481;28;20472;-81
2021/05/03 03:47:48;;;;;;;10.03;9.10;;;2.50;94.30;;;;;;5032758;28;20471;-80
2021/05/03 03:50:23;;;;;;;14.53;10.33;;;2.60;93.10;;;;;;5035730;28;20529;-82
2021/05/03 03:52:57;;;;;;;10.23;9.23;;;2.60;92.70;;;;;;5028416;28;20467;-80
2021/05/03 03:55:33;;;;;;;10.63;9.63;;;2.70;92.40;;;;;;5036835;28;20451;-81
2021/05/03 03:58:09;;;;;;;10.60;9.60;;;2.70;91.90;;;;;;5028778;28;20447;-81
2021/05/03 04:00:43;;;;;;;10.00;9.10;;;2.80;91.70;;;;;;5033827;28;20572;-83
2021/05/03 04:03:21;;;;;;;10.73;9.47;;;2.90;91.30;;;;;;5026319;28;20958;-80
2021/05/03 04:08:51;;;;;;;9.87;8.87;;;3.20;90.20;;;;;;5027645;28;20905;-81
2021/05/03 04:21:02;;;;;;;9.80;8.80;;;3.20;88.50;;;;;;5032261;28;20463;-80
2021/05/03 04:25:52;;;;;;;10.57;8.33;;;3.30;87.00;;;;;;5017205;28;20469;-82
2021/05/03 04:28:27;;;;;;;9.30;8.30;;;3.30;86.30;;;;;;5039463;28;20551;-82
2021/05/03 04:31:04;;;;;;;9.97;9.00;;;3.40;85.60;;;;;;5037497;28;20499;-80
2021/05/03 04:33:39;;;;;;;11.90;9.03;;;3.40;85.30;;;;;;5016185;28;20464;-84
2021/05/03 04:36:20;;;;;;;11.90;9.80;;;3.40;85.30;;;;;;5030651;28;20470;-81
2021/05/03 04:38:55;;;;;;;10.57;9.47;;;3.40;85.20;;;;;;5035465;28;20458;-82
2021/05/03 04:41:35;;;;;;;9.90;8.87;;;3.40;84.50;;;;;;5031339;28;20482;-82
2021/05/03 04:44:12;;;;;;;10.03;9.03;;;3.50;84.60;;;;;;5041607;28;20470;-81
2021/05/03 04:46:48;;;;;;;10.93;9.20;;;3.60;84.30;;;;;;5020878;28;20495;-84
2021/05/03 04:49:23;;;;;;;9.30;8.40;;;3.60;83.80;;;;;;5036053;28;20448;-82
2021/05/03 04:52:04;;;;;;;10.00;9.00;;;3.70;84.10;;;;;;5031787;28;20448;-84
2021/05/03 04:54:39;;;;;;;11.63;10.47;;;3.90;82.80;;;;;;5030625;28;20443;-82
2021/05/03 04:57:14;;;;;;;14.33;8.80;;;3.90;82.80;;;;;;5036781;28;20449;-81
2021/05/03 04:59:49;;;;;;;12.67;9.90;;;4.00;82.50;;;;;;5028184;28;21004;-79
2021/05/03 05:02:26;;;;;;;10.90;9.43;;;4.10;81.90;;;;;;5034168;28;20468;-82
2021/05/03 05:05:01;;;;;;;11.20;9.70;;;4.20;80.90;;;;;;5027411;28;20457;-81
2021/05/03 05:07:37;;;;;;;12.70;9.37;;;4.30;80.00;;;;;;5033481;28;20447;-83
2021/05/03 05:10:13;;;;;;;10.63;9.53;;;4.40;79.70;;;;;;5033402;28;20944;-82
2021/05/03 05:12:48;;;;;;;11.10;9.90;;;4.60;79.00;;;;;;5030207;28;20456;-85
2021/05/03 05:15:23;;;;;;;19.47;9.70;;;4.70;78.10;;;;;;5032071;28;20452;-82
2021/05/03 05:17:59;;;;;;;10.00;8.80;;;5.00;76.70;;;;;;5027159;28;20445;-82
2021/05/03 05:20:34;;;;;;;9.67;8.40;;;5.30;75.40;;;;;;5042826;28;20475;-82
2021/05/03 05:23:15;;;;;;;33.47;12.57;;;5.50;74.50;;;;;;5044361;28;20460;-83
2021/05/03 05:25:47;;;;;;;12.93;9.50;;;5.90;73.60;;;;;;5041221;28;20533;-83
2021/05/03 05:28:22;;;;;;;10.03;8.57;;;5.90;72.50;;;;;;5028631;28;20452;-82
2021/05/03 05:30:57;;;;;;;11.23;9.80;;;5.70;72.70;;;;;;5031775;28;20456;-82
2021/05/03 05:33:30;;;;;;;8.93;8.03;;;6.00;72.40;;;;;;5037616;28;20456;-81
2021/05/03 05:36:05;;;;;;;10.40;8.40;;;5.60;72.00;;;;;;5034927;28;20469;-82
2021/05/03 05:38:40;;;;;;;10.77;9.77;;;5.30;73.20;;;;;;5024946;28;20445;-80
2021/05/03 05:41:17;;;;;;;10.50;9.50;;;5.80;73.40;;;;;;5036489;28;20489;-83
2021/05/03 05:43:49;;;;;;;10.33;9.30;;;6.30;71.30;;;;;;5030156;28;20483;-81
2021/05/03 05:46:24;;;;;;;9.60;8.70;;;8.00;70.00;;;;;;5030330;28;20768;-80
2021/05/03 05:49:00;;;;;;;10.17;9.13;;;9.70;65.30;;;;;;5033954;28;20454;-81
2021/05/03 05:51:35;;;;;;;10.63;9.20;;;9.10;61.60;;;;;;5035004;28;20462;-81
2021/05/03 05:54:07;;;;;;;11.30;9.50;;;8.10;62.60;;;;;;5027391;28;20446;-83
2021/05/03 05:56:42;;;;;;;9.43;8.43;;;8.50;63.70;;;;;;5035511;28;20446;-82
2021/05/03 05:59:35;;;;;;;12.63;9.70;;;9.10;62.30;;;;;;5021407;28;20473;-83
2021/05/03 06:02:10;;;;;;;9.40;8.60;;;8.80;61.00;;;;;;5033654;28;20717;-82
2021/05/03 06:04:48;;;;;;;10.00;9.07;;;8.50;61.60;;;;;;5042101;28;20555;-82
2021/05/03 06:07:22;;;;;;;10.33;9.30;;;8.30;61.20;;;;;;5035311;28;20443;-84
2021/05/03 06:09:57;;;;;;;10.60;9.33;;;8.50;61.50;;;;;;5029659;28;20456;-83
2021/05/03 06:12:32;;;;;;;10.03;9.23;;;8.80;61.20;;;;;;5035896;28;20468;-84
2021/05/03 06:15:13;;;;;;;10.00;9.00;;;8.90;60.30;;;;;;5031771;28;20469;-79
2021/05/03 06:17:48;;;;;;;11.90;9.30;;;8.80;59.20;;;;;;5031381;28;20450;-83
2021/05/03 06:20:28;;;;;;;14.77;13.23;;;8.80;59.10;;;;;;5036083;28;20450;-83
2021/05/03 06:23:05;;;;;;;10.27;9.30;;;9.10;59.10;;;;;;5038730;28;20958;-82
2021/05/03 06:25:38;;;;;;;14.53;9.10;;;9.40;58.60;;;;;;5037997;28;20473;-82
2021/05/03 06:28:14;;;;;;;11.27;9.70;;;9.50;58.40;;;;;;5032748;28;20471;-80
2021/05/03 06:30:54;;;;;;;10.57;9.57;;;9.60;58.00;;;;;;5034480;28;20442;-82
2021/05/03 06:33:30;;;;;;;10.43;8.87;;;9.80;57.90;;;;;;5039225;28;20462;-82
2021/05/03 06:36:05;;;;;;;11.10;9.83;;;10.10;55.80;;;;;;5028802;28;20534;-81
2021/05/03 06:38:40;;;;;;;10.63;8.87;;;10.20;55.90;;;;;;5038065;28;20856;-81
2021/05/03 06:41:15;;;;;;;12.47;10.20;;;10.20;55.40;;;;;;5039138;28;20471;-83
2021/05/03 06:43:49;;;;;;;10.23;9.20;;;10.40;55.50;;;;;;5045137;28;20466;-82
2021/05/03 06:46:24;;;;;;;9.60;8.50;;;10.70;54.90;;;;;;5048392;28;20461;-81
2021/05/03 06:48:59;;;;;;;12.03;10.00;;;10.50;54.80;;;;;;5028184;28;20454;-82
2021/05/03 06:51:52;;;;;;;17.50;11.10;;;10.20;54.90;;;;;;5039322;28;20469;-80
2021/05/03 06:54:25;;;;;;;10.30;9.00;;;10.30;55.10;;;;;;5037827;28;20488;-83
2021/05/03 06:56:59;;;;;;;10.20;9.30;;;9.90;54.90;;;;;;5037297;28;20498;-82
2021/05/03 06:59:34;;;;;;;9.43;8.53;;;10.00;54.40;;;;;;5034129;28;20937;-81
2021/05/03 07:02:10;;;;;;;43.50;13.00;;;9.60;55.40;;;;;;5028104;28;20471;-82
2021/05/03 07:04:45;;;;;;;12.80;8.60;;;9.70;55.60;;;;;;5033707;28;20500;-79
2021/05/03 07:10:35;;;;;;;10.67;8.03;;;9.80;54.90;;;;;;5030645;28;20553;-84
2021/05/03 07:13:10;;;;;;;9.10;7.87;;;9.50;53.90;;;;;;5034237;28;20505;-82
2021/05/03 07:15:45;;;;;;;8.13;7.43;;;9.50;54.00;;;;;;5033990;28;20462;-83
2021/05/03 07:18:20;;;;;;;12.60;8.20;;;9.60;54.20;;;;;;5036562;28;20782;-85
2021/05/03 07:20:55;;;;;;;10.10;8.70;;;10.20;53.00;;;;;;5030187;28;20686;-77
2021/05/03 07:23:31;;;;;;;7.50;6.80;;;11.00;52.80;;;;;;5022470;28;20909;-80
2021/05/03 07:26:07;;;;;;;7.47;6.77;;;11.80;51.70;;;;;;5017612;28;20507;-77
2021/05/03 07:28:42;;;;;;;9.20;8.13;;;11.80;50.90;;;;;;5015164;28;20978;-80
2021/05/03 07:31:16;;;;;;;8.50;7.57;;;11.40;50.20;;;;;;5019538;28;20954;-79
2021/05/03 07:33:49;;;;;;;9.33;8.23;;;11.00;50.80;;;;;;5022892;28;20486;-79
2021/05/03 07:36:26;;;;;;;8.80;7.63;;;10.60;50.00;;;;;;5022885;28;20534;-84
2021/05/03 07:39:04;;;;;;;8.30;7.50;;;10.50;51.00;;;;;;5021654;28;20447;-79
2021/05/03 07:41:41;;;;;;;7.73;6.80;;;11.10;52.40;;;;;;5025008;28;21064;-78
2021/05/03 07:44:16;;;;;;;7.85;7.10;;;11.60;50.30;;;;;;5029238;28;20476;-82
2021/05/03 07:46:51;;;;;;;7.77;7.10;;;11.80;50.60;;;;;;5028447;28;20208;-83
2021/05/03 07:49:32;;;;;;;8.30;7.50;;;11.10;48.40;;;;;;5021051;28;20451;-83
2021/05/03 07:52:13;;;;;;;8.27;7.47;;;10.70;48.60;;;;;;5032411;28;20460;-82
2021/05/03 07:54:46;;;;;;;9.30;7.60;;;11.30;48.70;;;;;;5015454;28;20463;-86
2021/05/03 07:57:26;;;;;;;12.23;10.17;;;11.90;48.30;;;;;;5034201;28;20437;-87
2021/05/03 08:00:14;;;;;;;7.47;6.87;;;12.00;48.00;;;;;;5032841;28;20455;-88
2021/05/03 08:02:51;;;;;;;9.67;7.23;;;12.20;47.30;;;;;;5033644;28;20458;-81
2021/05/03 08:05:30;;;;;;;8.13;7.43;;;11.50;46.90;;;;;;5051731;28;20457;-82
2021/05/03 08:11:28;;;;;;;8.00;7.20;;;10.60;47.20;;;;;;5041594;28;20530;-80
2021/05/03 08:14:25;;;;;;;8.67;7.83;;;10.60;47.50;;;;;;5032191;28;20481;-82
2021/05/03 08:17:22;;;;;;;8.30;7.50;;;10.80;47.10;;;;;;5030640;28;20451;-87
2021/05/03 08:20:32;;;;;;;9.73;7.37;;;11.60;46.80;;;;;;5037776;28;20192;-81
2021/05/03 08:23:19;;;;;;;10.53;7.23;;;11.60;46.90;;;;;;5039751;28;20510;-83
2021/05/03 08:25:55;;;;;;;7.73;6.30;;;11.20;46.80;;;;;;5034809;28;20485;-81
2021/05/03 08:28:32;;;;;;;12.27;7.00;;;11.20;46.40;;;;;;5028955;28;20458;-83
2021/05/03 08:31:10;;;;;;;7.43;6.63;;;11.60;46.50;;;;;;5021568;28;20518;-86
2021/05/03 08:33:53;;;;;;;8.53;7.80;;;12.00;46.20;;;;;;5040790;28;20447;-83
2021/05/03 08:36:46;;;;;;;8.03;6.70;;;12.00;46.00;;;;;;5033163;28;20459;-82
2021/05/03 08:45:09;;;;;;;7.40;6.37;;;10.40;47.80;;;;;;5032084;28;20197;-81
2021/05/03 08:57:36;;;;;;;13.00;7.50;;;11.30;46.60;;;;;;5058072;28;20501;-88
2021/05/03 09:00:22;;;;;;;7.30;6.70;;;11.20;46.50;;;;;;5030838;28;20455;-86
2021/05/03 09:03:06;;;;;;;7.50;6.40;;;11.70;47.00;;;;;;5032314;28;20450;-85
2021/05/03 09:08:41;;;;;;;7.20;6.60;;;11.90;46.30;;;;;;5031137;28;20272;-87
2021/05/03 09:11:20;;;;;;;7.33;6.67;;;11.70;46.10;;;;;;5035675;28;20444;-83
2021/05/03 09:17:45;;;;;;;7.40;6.70;;;11.90;45.50;;;;;;5031962;28;20228;-84
2021/05/03 09:20:21;;;;;;;6.57;5.87;;;12.10;46.30;;;;;;5034638;28;20562;-86
2021/05/03 09:23:00;;;;;;;8.30;6.30;;;12.60;45.10;;;;;;5042049;28;20455;-88
2021/05/03 09:25:37;;;;;;;7.75;7.15;;;12.90;44.40;;;;;;5024241;28;20450;-85
2021/05/03 09:28:14;;;;;;;7.75;7.15;;;12.80;44.40;;;;;;5015628;28;20466;-85
2021/05/03 09:31:01;;;;;;;7.80;7.10;;;12.80;44.70;;;;;;5038646;28;20208;-85
2021/05/03 09:33:40;;;;;;;7.23;6.63;;;13.40;45.30;;;;;;5025714;28;20463;-80
2021/05/03 09:36:25;;;;;;;8.50;6.97;;;13.10;44.50;;;;;;5027175;28;20701;-80
2021/05/03 09:39:04;;;;;;;6.70;6.20;;;12.50;44.10;;;;;;5008108;28;20459;-81
2021/05/03 09:41:44;;;;;;;8.10;7.27;;;12.90;44.90;;;;;;5031786;28;20490;-85
2021/05/03 09:44:19;;;;;;;7.90;7.13;;;13.30;44.30;;;;;;5030382;28;20458;-85
2021/05/03 09:46:58;;;;;;;10.03;6.40;;;12.90;44.00;;;;;;5030055;28;20451;-83
2021/05/03 09:49:39;;;;;;;7.43;6.50;;;12.90;44.80;;;;;;5031165;28;20450;-84
2021/05/03 09:52:21;;;;;;;7.97;7.27;;;12.60;44.10;;;;;;5040450;28;20546;-83
2021/05/03 09:55:51;;;;;;;8.37;7.40;;;11.90;45.50;;;;;;5044023;28;20465;-85
2021/05/03 09:58:41;;;;;;;8.73;8.02;;;12.20;45.60;;;;;;5036252;28;20454;-83
2021/05/03 10:01:21;;;;;;;7.97;7.20;;;11.80;45.00;;;;;;5043077;28;20467;-82
2021/05/03 10:03:57;;;;;;;7.17;6.50;;;11.50;45.70;;;;;;5047321;28;20447;-84
2021/05/03 10:06:44;;;;;;;7.80;7.10;;;11.80;44.70;;;;;;5020740;28;20636;-83
2021/05/03 10:09:25;;;;;;;8.23;7.53;;;12.10;44.50;;;;;;5036438;28;20446;-86
2021/05/03 10:12:12;;;;;;;8.37;7.67;;;12.10;45.20;;;;;;5038341;28;20459;-85
2021/05/03 10:14:49;;;;;;;6.83;6.33;;;13.00;45.00;;;;;;5030345;28;20514;-82
2021/05/03 10:17:31;;;;;;;7.60;7.00;;;13.20;43.80;;;;;;5031570;28;20442;-82
2021/05/03 10:20:08;;;;;;;7.33;6.63;;;13.50;43.40;;;;;;5029244;28;20507;-83
2021/05/03 10:22:49;;;;;;;11.50;7.23;;;13.20;44.30;;;;;;5031713;28;20475;-83
2021/05/03 10:25:24;;;;;;;7.68;6.97;;;13.60;43.50;;;;;;5035803;28;20489;-83
2021/05/03 10:28:07;;;;;;;7.37;6.40;;;13.90;43.60;;;;;;5029838;28;20200;-85
2021/05/03 10:30:48;;;;;;;13.33;6.60;;;14.60;42.80;;;;;;5031325;28;20451;-82
2021/05/03 10:33:23;;;;;;;7.57;6.80;;;13.80;42.10;;;;;;5040895;28;20477;-84
2021/05/03 10:35:58;;;;;;;7.77;6.97;;;12.80;42.40;;;;;;5029343;28;20558;-83
2021/05/03 10:38:53;;;;;;;8.43;7.53;;;13.00;42.80;;;;;;5020389;28;20467;-82
2021/05/03 10:41:40;;;;;;;6.50;6.00;;;13.10;43.50;;;;;;5030883;28;20497;-85
2021/05/03 10:44:21;;;;;;;6.30;5.80;;;13.20;42.60;;;;;;5027903;28;20478;-83
2021/05/03 10:47:06;;;;;;;6.70;6.10;;;13.20;41.60;;;;;;5029747;28;20456;-85
2021/05/03 10:49:45;;;;;;;6.70;6.20;;;13.50;41.50;;;;;;5027005;28;20465;-84
2021/05/03 10:56:03;;;;;;;6.40;5.90;;;14.10;42.20;;;;;;5032130;28;20454;-84
2021/05/03 10:59:08;;;;;;;7.38;6.70;;;13.90;41.90;;;;;;5031829;28;20462;-87
2021/05/03 11:02:15;;;;;;;6.73;6.23;;;13.50;41.60;;;;;;5034949;28;20227;-84
2021/05/03 11:05:18;;;;;;;7.30;6.63;;;13.70;40.50;;;;;;5037934;28;20450;-85
2021/05/03 11:11:24;;;;;;;6.13;5.53;;;13.00;41.30;;;;;;5039788;28;20464;-88
2021/05/03 11:14:13;;;;;;;7.72;7.03;;;12.60;41.90;;;;;;5046059;28;20455;-86
2021/05/03 11:17:16;;;;;;;7.83;7.13;;;12.30;44.10;;;;;;5042238;28;20643;-88
2021/05/03 11:20:08;;;;;;;7.37;6.77;;;12.40;43.70;;;;;;5026184;28;20523;-87
2021/05/03 11:25:49;;;;;;;6.33;5.83;;;13.20;43.80;;;;;;5019647;28;20549;-90
2021/05/03 11:31:35;;;;;;;6.50;5.80;;;13.10;43.20;;;;;;5048707;28;20454;-81
2021/05/03 11:34:19;;;;;;;6.37;5.77;;;13.00;42.00;;;;;;5029810;28;20518;-83
2021/05/03 11:37:02;;;;;;;6.20;5.70;;;13.20;41.30;;;;;;5038033;28;20438;-83
2021/05/03 11:39:51;;;;;;;6.27;5.67;;;12.90;40.90;;;;;;5036691;28;20489;-86
2021/05/03 11:45:29;;;;;;;5.60;5.20;;;13.90;41.20;;;;;;5029873;28;20462;-87
2021/05/03 11:48:05;;;;;;;5.93;5.00;;;14.40;39.80;;;;;;5033257;28;20284;-87
2021/05/03 11:50:37;;;;;;;5.63;5.13;;;15.30;40.10;;;;;;5019947;28;20513;-81
2021/05/03 11:53:13;;;;;;;5.35;4.75;;;15.10;38.00;;;;;;5015935;28;20671;-82
2021/05/03 11:56:00;;;;;;;6.40;5.80;;;15.90;37.70;;;;;;5030928;28;20194;-89
2021/05/03 11:58:37;;;;;;;5.23;4.73;;;15.60;37.50;;;;;;5024947;28;20448;-90
2021/05/03 12:01:29;;;;;;;6.07;5.57;;;15.00;37.40;;;;;;5025905;28;20471;-87
2021/05/03 12:04:04;;;;;;;6.20;5.70;;;14.40;37.40;;;;;;5034232;28;20461;-88
2021/05/03 12:09:46;;;;;;;5.73;5.20;;;14.40;39.80;;;;;;5029310;28;20546;-87
2021/05/03 12:12:17;;;;;;;6.53;4.47;;;14.70;39.10;;;;;;5012252;28;20458;-86
2021/05/03 12:14:54;;;;;;;4.70;4.30;;;15.10;37.60;;;;;;5011547;28;20185;-88
2021/05/03 12:17:39;;;;;;;6.10;5.50;;;15.00;37.30;;;;;;5028899;28;20442;-86
2021/05/03 12:20:24;;;;;;;7.53;6.93;;;15.00;37.00;;;;;;5020444;28;20474;-85
2021/05/03 12:23:02;;;;;;;5.13;4.77;;;15.80;37.50;;;;;;5029750;28;20487;-86
2021/05/03 12:25:42;;;;;;;4.80;4.50;;;15.00;36.90;;;;;;5029021;28;20513;-86
2021/05/03 12:28:38;;;;;;;5.03;4.50;;;14.60;37.20;;;;;;5019684;28;20578;-85
2021/05/03 12:31:13;;;;;;;6.20;5.70;;;14.40;38.20;;;;;;5028753;28;20487;-87
2021/05/03 12:33:56;;;;;;;5.03;4.65;;;14.30;37.90;;;;;;5025238;28;20467;-86
2021/05/03 12:36:40;;;;;;;5.60;4.80;;;14.80;38.70;;;;;;5024834;28;20560;-89
2021/05/03 12:39:25;;;;;;;4.47;4.17;;;15.00;37.10;;;;;;5031068;28;20528;-87
2021/05/03 12:42:11;;;;;;;4.70;3.97;;;15.60;36.50;;;;;;5025555;28;20595;-86
2021/05/03 12:44:59;;;;;;;6.97;4.20;;;15.60;35.30;;;;;;5032060;28;20485;-89
2021/05/03 12:48:10;;;;;;;4.30;3.90;;;15.00;35.40;;;;;;5029415;28;20455;-88
2021/05/03 12:51:14;;;;;;;5.57;5.17;;;14.90;36.10;;;;;;5022628;28;20495;-88
2021/05/03 12:54:10;;;;;;;5.50;5.10;;;14.00;36.10;;;;;;5030111;28;20453;-88
2021/05/03 12:57:11;;;;;;;5.53;5.07;;;13.70;36.70;;;;;;5035720;28;20447;-87
2021/05/03 12:59:54;;;;;;;5.63;5.13;;;14.50;37.80;;;;;;5034374;28;20451;-87
2021/05/03 13:02:34;;;;;;;6.13;5.53;;;14.90;37.00;;;;;;5024019;28;20442;-86
2021/05/03 13:05:25;;;;;;;6.67;6.07;;;14.70;35.70;;;;;;5040473;28;20240;-86
2021/05/03 13:28:00;;;;;;;7.53;6.80;;;13.30;39.70;;;;;;5035898;28;20253;-87
2021/05/03 13:29:06;;;;;;;7.17;6.57;;;13.00;40.00;;;;;;5026735;28;20946;-86
2021/05/03 13:31:43;;;;;;;7.30;6.67;;;12.80;40.10;;;;;;5031179;28;20470;-87
2021/05/03 13:34:25;;;;;;;7.60;6.80;;;13.20;40.30;;;;;;5025057;28;20467;-87
2021/05/03 13:37:05;;;;;;;7.70;7.00;;;13.10;40.50;;;;;;5024503;28;20461;-87
2021/05/03 13:43:05;;;;;;;7.30;6.70;;;13.30;40.90;;;;;;5036776;28;20478;-86
2021/05/03 13:45:38;;;;;;;7.93;7.27;;;13.90;40.20;;;;;;5034497;28;20469;-85
2021/05/03 13:54:10;;;;;;;8.20;7.40;;;15.50;39.00;;;;;;5030327;28;20467;-88
2021/05/03 13:59:33;;;;;;;6.90;6.27;;;14.90;38.70;;;;;;5020359;28;20477;-86
2021/05/03 14:02:22;;;;;;;7.47;6.87;;;15.20;38.40;;;;;;5009592;28;20566;-87
2021/05/03 14:07:50;;;;;;;5.77;5.33;;;15.50;37.20;;;;;;5025875;28;20530;-88
2021/05/03 14:19:04;;;;;;;4.90;4.60;;;14.50;35.30;;;;;;5024402;28;20483;-85
2021/05/03 14:24:34;;;;;;;7.43;6.83;;;15.00;36.90;;;;;;5026431;28;20451;-87
2021/05/03 14:27:30;;;;;;;7.30;6.70;;;14.50;38.10;;;;;;5027908;28;20513;-81
2021/05/03 14:30:10;;;;;;;7.67;7.07;;;14.50;38.50;;;;;;5028487;28;20476;-86
2021/05/03 14:32:44;;;;;;;6.97;6.43;;;14.70;38.00;;;;;;5029172;28;20974;-80
2021/05/03 14:35:23;;;;;;;6.67;6.07;;;15.20;38.80;;;;;;5038307;28;20970;-82
2021/05/03 14:37:55;;;;;;;4.97;4.57;;;14.70;34.50;;;;;;5035574;28;20957;-82
2021/05/03 14:40:28;;;;;;;5.60;5.20;;;14.30;34.80;;;;;;5028123;28;20535;-86
2021/05/03 14:43:06;;;;;;;4.67;4.37;;;14.30;34.70;;;;;;5029606;28;20538;-81
2021/05/03 14:45:47;;;;;;;5.00;4.50;;;14.40;35.00;;;;;;5028629;28;20470;-84
2021/05/03 14:48:27;;;;;;;4.63;4.13;;;14.80;34.70;;;;;;5035933;28;20462;-82
2021/05/03 14:51:16;;;;;;;6.60;5.50;;;14.20;34.30;;;;;;5045802;28;20469;-79
2021/05/03 14:54:00;;;;;;;4.60;4.20;;;14.20;35.10;;;;;;5031958;28;20969;-83
2021/05/03 14:56:34;;;;;;;3.63;3.37;;;14.50;33.40;;;;;;5035382;28;20451;-80
2021/05/03 14:59:07;;;;;;;5.03;4.53;;;14.10;32.70;;;;;;5043329;28;20449;-81
2021/05/03 15:01:41;;;;;;;5.10;4.60;;;14.10;33.90;;;;;;5025400;28;20495;-81
2021/05/03 15:04:24;;;;;;;5.00;4.60;;;14.30;33.80;;;;;;5026955;28;20455;-80
2021/05/03 15:07:01;;;;;;;5.07;4.57;;;14.70;34.40;;;;;;5013967;28;20533;-78
2021/05/03 15:09:40;;;;;;;4.97;4.50;;;14.60;34.20;;;;;;5018004;28;20462;-81
2021/05/03 15:12:19;;;;;;;6.60;6.10;;;14.40;34.90;;;;;;5023821;28;20495;-85
2021/05/03 15:15:09;;;;;;;6.50;5.97;;;14.40;36.30;;;;;;5030372;28;20448;-81
2021/05/03 15:17:53;;;;;;;10.83;6.77;;;14.50;37.30;;;;;;5034036;28;20447;-82
2021/05/03 15:23:14;;;;;;;6.77;6.17;;;14.00;37.80;;;;;;5033212;28;20504;-83
2021/05/03 15:25:51;;;;;;;6.30;5.83;;;13.60;36.50;;;;;;5041936;28;20462;-84
2021/05/03 15:28:36;;;;;;;11.73;5.70;;;13.60;36.30;;;;;;5031904;28;20463;-82
2021/05/03 15:31:23;;;;;;;6.77;6.20;;;14.00;36.60;;;;;;5029356;28;20467;-83
2021/05/03 15:34:00;;;;;;;5.73;5.23;;;14.00;36.80;;;;;;5028083;28;20451;-84
2021/05/03 15:36:35;;;;;;;7.50;6.27;;;14.00;36.40;;;;;;5026343;28;20865;-83
2021/05/03 15:39:16;;;;;;;5.77;5.27;;;14.40;35.70;;;;;;5037042;28;20454;-83